sensor_id;sensor_type;location;lat;lon;timestamp;pressure;altitude;pressure_sealevel;temperature;humidity
71004;BME280;59025;42.050;-8.660;2022-07-29T00:01:57;101014.09;;;18.76;100.00
71004;BME280;59025;42.050;-8.660;2022-07-29T00:04:25;101024.06;;;18.79;100.00
71004;BME280;59025;42.050;-8.660;2022-07-29T00:06:52;101017.56;;;18.82;100.00
71004;BME280;59025;42.050;-8.660;2022-07-29T00:09:20;101013.13;;;18.82;100.00
71004;BME280;59025;42.050;-8.660;2022-07-29T00:11:47;101012.34;;;18.82;100.00
71004;BME280;59025;42.050;-8.660;2022-07-29T00:14:17;101009.41;;;18.78;100.00
71004;BME280;59025;42.050;-8.660;2022-07-29T00:16:44;100999.78;;;18.79;100.00
71004;BME280;59025;42.050;-8.660;2022-07-29T00:19:12;100997.97;;;18.79;100.00
71004;BME280;59025;42.050;-8.660;2022-07-29T00:21:39;100999.41;;;18.70;100.00
71004;BME280;59025;42.050;-8.660;2022-07-29T00:24:07;100998.94;;;18.73;100.00
71004;BME280;59025;42.050;-8.660;2022-07-29T00:26:35;101004.97;;;18.57;100.00
71004;BME280;59025;42.050;-8.660;2022-07-29T00:29:04;101024.66;;;18.48;100.00
71004;BME280;59025;42.050;-8.660;2022-07-29T00:31:33;101018.16;;;18.51;100.00
71004;BME280;59025;42.050;-8.660;2022-07-29T00:34:00;101013.19;;;18.49;100.00
71004;BME280;59025;42.050;-8.660;2022-07-29T00:36:28;101021.28;;;18.48;100.00
71004;BME280;59025;42.050;-8.660;2022-07-29T00:38:55;101021.31;;;18.53;100.00
71004;BME280;59025;42.050;-8.660;2022-07-29T00:41:22;101017.94;;;18.52;100.00
71004;BME280;59025;42.050;-8.660;2022-07-29T00:43:49;101006.78;;;18.57;100.00
71004;BME280;59025;42.050;-8.660;2022-07-29T00:46:17;101016.19;;;18.58;100.00
71004;BME280;59025;42.050;-8.660;2022-07-29T00:48:46;101008.78;;;18.50;100.00
71004;BME280;59025;42.050;-8.660;2022-07-29T00:51:14;101003.72;;;18.43;100.00
71004;BME280;59025;42.050;-8.660;2022-07-29T00:53:42;101000.88;;;18.45;100.00
71004;BME280;59025;42.050;-8.660;2022-07-29T00:56:09;101010.50;;;18.28;100.00
71004;BME280;59025;42.050;-8.660;2022-07-29T00:58:37;101031.03;;;18.24;100.00
71004;BME280;59025;42.050;-8.660;2022-07-29T01:01:05;101035.63;;;18.34;100.00
71004;BME280;59025;42.050;-8.660;2022-07-29T01:03:33;101027.59;;;18.35;100.00
71004;BME280;59025;42.050;-8.660;2022-07-29T01:06:02;101018.75;;;18.36;100.00
71004;BME280;59025;42.050;-8.660;2022-07-29T01:08:31;101010.50;;;18.44;100.00
71004;BME280;59025;42.050;-8.660;2022-07-29T01:11:00;101002.97;;;18.43;100.00
71004;BME280;59025;42.050;-8.660;2022-07-29T01:13:30;101003.25;;;18.30;100.00
71004;BME280;59025;42.050;-8.660;2022-07-29T01:16:15;101005.19;;;18.34;100.00
71004;BME280;59025;42.050;-8.660;2022-07-29T01:18:47;100994.66;;;18.29;100.00
71004;BME280;59025;42.050;-8.660;2022-07-29T01:21:33;101006.09;;;18.28;100.00
71004;BME280;59025;42.050;-8.660;2022-07-29T01:24:18;100997.25;;;18.29;100.00
71004;BME280;59025;42.050;-8.660;2022-07-29T01:26:57;100989.22;;;18.31;100.00
71004;BME280;59025;42.050;-8.660;2022-07-29T01:29:29;101001.78;;;18.17;100.00
71004;BME280;59025;42.050;-8.660;2022-07-29T01:32:02;101010.59;;;18.16;100.00
71004;BME280;59025;42.050;-8.660;2022-07-29T01:34:38;101019.84;;;18.07;100.00
71004;BME280;59025;42.050;-8.660;2022-07-29T01:37:15;101016.50;;;18.12;100.00
71004;BME280;59025;42.050;-8.660;2022-07-29T01:39:46;100999.16;;;18.17;100.00
71004;BME280;59025;42.050;-8.660;2022-07-29T01:42:20;100984.94;;;18.25;100.00
71004;BME280;59025;42.050;-8.660;2022-07-29T01:44:55;100984.22;;;18.13;100.00
71004;BME280;59025;42.050;-8.660;2022-07-29T01:47:25;100970.44;;;18.12;100.00
71004;BME280;59025;42.050;-8.660;2022-07-29T01:49:56;100972.97;;;18.07;100.00
71004;BME280;59025;42.050;-8.660;2022-07-29T01:52:31;100999.69;;;17.86;100.00
71004;BME280;59025;42.050;-8.660;2022-07-29T01:55:06;101025.00;;;17.74;100.00
71004;BME280;59025;42.050;-8.660;2022-07-29T01:57:36;101022.41;;;17.91;100.00
71004;BME280;59025;42.050;-8.660;2022-07-29T02:00:08;101022.91;;;17.88;100.00
71004;BME280;59025;42.050;-8.660;2022-07-29T02:02:38;101017.47;;;17.89;100.00
71004;BME280;59025;42.050;-8.660;2022-07-29T02:05:08;101014.47;;;17.97;100.00
71004;BME280;59025;42.050;-8.660;2022-07-29T02:07:38;101008.22;;;17.98;100.00
71004;BME280;59025;42.050;-8.660;2022-07-29T02:10:08;101014.19;;;17.82;100.00
71004;BME280;59025;42.050;-8.660;2022-07-29T02:12:37;101018.69;;;17.70;100.00
71004;BME280;59025;42.050;-8.660;2022-07-29T02:15:07;101017.06;;;17.81;100.00
71004;BME280;59025;42.050;-8.660;2022-07-29T02:17:41;101003.16;;;17.75;100.00
71004;BME280;59025;42.050;-8.660;2022-07-29T02:20:09;101015.41;;;17.75;100.00
71004;BME280;59025;42.050;-8.660;2022-07-29T02:22:39;101016.56;;;17.67;100.00
71004;BME280;59025;42.050;-8.660;2022-07-29T02:25:08;101011.44;;;17.72;100.00
71004;BME280;59025;42.050;-8.660;2022-07-29T02:27:37;101010.78;;;17.65;100.00
71004;BME280;59025;42.050;-8.660;2022-07-29T02:30:09;101009.69;;;17.61;100.00
71004;BME280;59025;42.050;-8.660;2022-07-29T02:32:39;101022.94;;;17.60;100.00
71004;BME280;59025;42.050;-8.660;2022-07-29T02:35:09;101020.00;;;17.56;100.00
71004;BME280;59025;42.050;-8.660;2022-07-29T02:37:38;101018.75;;;17.59;100.00
71004;BME280;59025;42.050;-8.660;2022-07-29T02:40:09;101029.06;;;17.54;100.00
71004;BME280;59025;42.050;-8.660;2022-07-29T02:42:39;101024.56;;;17.49;100.00
71004;BME280;59025;42.050;-8.660;2022-07-29T02:45:10;101020.75;;;17.40;100.00
71004;BME280;59025;42.050;-8.660;2022-07-29T02:47:42;101029.69;;;17.44;100.00
71004;BME280;59025;42.050;-8.660;2022-07-29T02:50:13;101021.28;;;17.42;100.00
71004;BME280;59025;42.050;-8.660;2022-07-29T02:52:44;101018.47;;;17.44;100.00
71004;BME280;59025;42.050;-8.660;2022-07-29T02:55:16;101017.91;;;17.42;100.00
71004;BME280;59025;42.050;-8.660;2022-07-29T02:57:48;101037.16;;;17.41;100.00
71004;BME280;59025;42.050;-8.660;2022-07-29T03:00:21;101049.13;;;17.42;100.00
71004;BME280;59025;42.050;-8.660;2022-07-29T03:02:52;101062.38;;;17.40;100.00
71004;BME280;59025;42.050;-8.660;2022-07-29T03:05:21;101078.78;;;17.41;100.00
71004;BME280;59025;42.050;-8.660;2022-07-29T03:07:54;101069.16;;;17.41;100.00
71004;BME280;59025;42.050;-8.660;2022-07-29T03:10:23;101090.97;;;17.40;100.00
71004;BME280;59025;42.050;-8.660;2022-07-29T03:12:52;101080.56;;;17.40;100.00
71004;BME280;59025;42.050;-8.660;2022-07-29T03:15:23;101071.53;;;17.43;100.00
71004;BME280;59025;42.050;-8.660;2022-07-29T03:17:51;101062.91;;;17.42;100.00
71004;BME280;59025;42.050;-8.660;2022-07-29T03:20:19;101061.88;;;17.43;100.00
71004;BME280;59025;42.050;-8.660;2022-07-29T03:22:47;101051.25;;;17.45;100.00
71004;BME280;59025;42.050;-8.660;2022-07-29T03:25:17;101040.09;;;17.44;100.00
71004;BME280;59025;42.050;-8.660;2022-07-29T03:27:45;101043.81;;;17.37;100.00
71004;BME280;59025;42.050;-8.660;2022-07-29T03:30:14;101051.94;;;17.29;100.00
71004;BME280;59025;42.050;-8.660;2022-07-29T03:32:43;101063.81;;;17.36;100.00
71004;BME280;59025;42.050;-8.660;2022-07-29T03:35:10;101050.94;;;17.41;100.00
71004;BME280;59025;42.050;-8.660;2022-07-29T03:37:38;101049.38;;;17.40;100.00
71004;BME280;59025;42.050;-8.660;2022-07-29T03:40:07;101042.81;;;17.38;100.00
71004;BME280;59025;42.050;-8.660;2022-07-29T03:42:37;101045.59;;;17.36;100.00
71004;BME280;59025;42.050;-8.660;2022-07-29T03:45:09;101043.38;;;17.28;100.00
71004;BME280;59025;42.050;-8.660;2022-07-29T03:47:39;101034.94;;;17.21;100.00
71004;BME280;59025;42.050;-8.660;2022-07-29T03:50:11;101039.53;;;17.19;100.00
71004;BME280;59025;42.050;-8.660;2022-07-29T03:52:41;101027.25;;;17.15;100.00
71004;BME280;59025;42.050;-8.660;2022-07-29T03:55:09;101024.75;;;17.08;100.00
71004;BME280;59025;42.050;-8.660;2022-07-29T03:57:38;101027.25;;;17.03;100.00
71004;BME280;59025;42.050;-8.660;2022-07-29T04:00:07;101034.94;;;16.98;100.00
71004;BME280;59025;42.050;-8.660;2022-07-29T04:02:36;101041.97;;;16.98;100.00
71004;BME280;59025;42.050;-8.660;2022-07-29T04:05:04;101039.81;;;16.95;100.00
71004;BME280;59025;42.050;-8.660;2022-07-29T04:07:33;101046.38;;;16.97;100.00
71004;BME280;59025;42.050;-8.660;2022-07-29T04:10:00;101048.19;;;16.97;100.00
71004;BME280;59025;42.050;-8.660;2022-07-29T04:12:28;101048.75;;;16.99;100.00
71004;BME280;59025;42.050;-8.660;2022-07-29T04:14:56;101052.16;;;16.99;100.00
71004;BME280;59025;42.050;-8.660;2022-07-29T04:17:23;101051.34;;;16.99;100.00
71004;BME280;59025;42.050;-8.660;2022-07-29T04:19:50;101064.59;;;16.86;100.00
71004;BME280;59025;42.050;-8.660;2022-07-29T04:22:18;101060.28;;;16.91;100.00
71004;BME280;59025;42.050;-8.660;2022-07-29T04:24:47;101055.31;;;17.01;100.00
71004;BME280;59025;42.050;-8.660;2022-07-29T04:27:14;101060.50;;;17.01;100.00
71004;BME280;59025;42.050;-8.660;2022-07-29T04:29:41;101064.56;;;16.97;100.00
71004;BME280;59025;42.050;-8.660;2022-07-29T04:32:09;101071.47;;;16.92;100.00
71004;BME280;59025;42.050;-8.660;2022-07-29T04:34:36;101074.63;;;16.94;100.00
71004;BME280;59025;42.050;-8.660;2022-07-29T04:37:04;101070.69;;;16.91;100.00
71004;BME280;59025;42.050;-8.660;2022-07-29T04:39:31;101080.06;;;16.92;100.00
71004;BME280;59025;42.050;-8.660;2022-07-29T04:42:00;101068.41;;;17.06;100.00
71004;BME280;59025;42.050;-8.660;2022-07-29T04:44:28;101064.78;;;17.07;100.00
71004;BME280;59025;42.050;-8.660;2022-07-29T04:46:56;101060.50;;;17.01;100.00
71004;BME280;59025;42.050;-8.660;2022-07-29T04:49:24;101053.59;;;17.07;100.00
71004;BME280;59025;42.050;-8.660;2022-07-29T04:51:51;101046.25;;;17.04;100.00
71004;BME280;59025;42.050;-8.660;2022-07-29T04:54:19;101056.34;;;16.89;100.00
71004;BME280;59025;42.050;-8.660;2022-07-29T04:56:47;101078.25;;;16.81;100.00
71004;BME280;59025;42.050;-8.660;2022-07-29T04:59:16;101099.19;;;16.75;100.00
71004;BME280;59025;42.050;-8.660;2022-07-29T05:01:43;101089.34;;;16.88;100.00
71004;BME280;59025;42.050;-8.660;2022-07-29T05:04:11;101079.50;;;16.90;100.00
71004;BME280;59025;42.050;-8.660;2022-07-29T05:06:38;101076.56;;;16.87;100.00
71004;BME280;59025;42.050;-8.660;2022-07-29T05:09:06;101084.47;;;16.80;100.00
71004;BME280;59025;42.050;-8.660;2022-07-29T05:11:33;101095.56;;;16.87;100.00
71004;BME280;59025;42.050;-8.660;2022-07-29T05:14:00;101097.47;;;16.92;100.00
71004;BME280;59025;42.050;-8.660;2022-07-29T05:16:29;101097.91;;;16.89;100.00
71004;BME280;59025;42.050;-8.660;2022-07-29T05:18:57;101104.69;;;16.90;100.00
71004;BME280;59025;42.050;-8.660;2022-07-29T05:21:24;101106.97;;;16.98;100.00
71004;BME280;59025;42.050;-8.660;2022-07-29T05:23:52;101114.19;;;17.07;100.00
71004;BME280;59025;42.050;-8.660;2022-07-29T05:26:19;101107.06;;;17.14;100.00
71004;BME280;59025;42.050;-8.660;2022-07-29T05:28:47;101111.81;;;17.17;100.00
71004;BME280;59025;42.050;-8.660;2022-07-29T05:31:14;101111.44;;;17.25;100.00
71004;BME280;59025;42.050;-8.660;2022-07-29T05:33:43;101113.72;;;17.22;100.00
71004;BME280;59025;42.050;-8.660;2022-07-29T05:36:11;101116.19;;;17.28;100.00
71004;BME280;59025;42.050;-8.660;2022-07-29T05:38:38;101118.31;;;17.31;100.00
71004;BME280;59025;42.050;-8.660;2022-07-29T05:41:06;101116.44;;;17.38;100.00
71004;BME280;59025;42.050;-8.660;2022-07-29T05:43:33;101106.47;;;17.47;100.00
71004;BME280;59025;42.050;-8.660;2022-07-29T05:46:01;101103.94;;;17.52;100.00
71004;BME280;59025;42.050;-8.660;2022-07-29T05:48:28;101106.19;;;17.60;100.00
71004;BME280;59025;42.050;-8.660;2022-07-29T05:50:57;101101.59;;;17.78;100.00
71004;BME280;59025;42.050;-8.660;2022-07-29T05:53:25;101082.66;;;18.11;100.00
71004;BME280;59025;42.050;-8.660;2022-07-29T05:55:52;101055.59;;;18.61;100.00
71004;BME280;59025;42.050;-8.660;2022-07-29T05:58:20;101023.63;;;19.09;100.00
71004;BME280;59025;42.050;-8.660;2022-07-29T06:00:47;101000.56;;;19.44;100.00
71004;BME280;59025;42.050;-8.660;2022-07-29T06:03:15;101001.53;;;19.16;100.00
71004;BME280;59025;42.050;-8.660;2022-07-29T06:05:42;101011.00;;;19.01;100.00
71004;BME280;59025;42.050;-8.660;2022-07-29T06:08:11;101017.38;;;18.88;100.00
71004;BME280;59025;42.050;-8.660;2022-07-29T06:10:39;101023.25;;;18.79;100.00
71004;BME280;59025;42.050;-8.660;2022-07-29T06:13:06;101031.50;;;18.71;100.00
71004;BME280;59025;42.050;-8.660;2022-07-29T06:15:33;101048.41;;;18.68;100.00
71004;BME280;59025;42.050;-8.660;2022-07-29T06:18:01;101055.66;;;18.66;100.00
71004;BME280;59025;42.050;-8.660;2022-07-29T06:20:29;101057.09;;;18.57;100.00
71004;BME280;59025;42.050;-8.660;2022-07-29T06:22:57;101066.03;;;18.45;100.00
71004;BME280;59025;42.050;-8.660;2022-07-29T06:25:26;101067.94;;;18.33;100.00
71004;BME280;59025;42.050;-8.660;2022-07-29T06:27:54;101079.28;;;18.27;100.00
71004;BME280;59025;42.050;-8.660;2022-07-29T06:30:22;101076.97;;;18.30;100.00
71004;BME280;59025;42.050;-8.660;2022-07-29T06:32:49;101077.56;;;18.32;100.00
71004;BME280;59025;42.050;-8.660;2022-07-29T06:35:17;101080.81;;;18.39;100.00
71004;BME280;59025;42.050;-8.660;2022-07-29T06:37:44;101075.34;;;18.41;100.00
71004;BME280;59025;42.050;-8.660;2022-07-29T06:40:12;101078.75;;;18.41;100.00
71004;BME280;59025;42.050;-8.660;2022-07-29T06:42:58;101083.47;;;18.44;100.00
71004;BME280;59025;42.050;-8.660;2022-07-29T06:45:25;101089.56;;;18.50;100.00
71004;BME280;59025;42.050;-8.660;2022-07-29T06:47:53;101086.25;;;18.54;100.00
71004;BME280;59025;42.050;-8.660;2022-07-29T06:50:20;101094.94;;;18.60;100.00
71004;BME280;59025;42.050;-8.660;2022-07-29T06:52:48;101101.56;;;18.67;100.00
71004;BME280;59025;42.050;-8.660;2022-07-29T06:55:15;101097.50;;;18.76;100.00
71004;BME280;59025;42.050;-8.660;2022-07-29T06:57:44;101098.38;;;18.82;100.00
71004;BME280;59025;42.050;-8.660;2022-07-29T07:00:14;101097.50;;;18.93;100.00
71004;BME280;59025;42.050;-8.660;2022-07-29T07:02:42;101084.34;;;19.04;100.00
71004;BME280;59025;42.050;-8.660;2022-07-29T07:05:09;101079.03;;;19.16;100.00
71004;BME280;59025;42.050;-8.660;2022-07-29T07:07:37;101070.09;;;19.12;100.00
71004;BME280;59025;42.050;-8.660;2022-07-29T07:10:05;101061.66;;;19.48;100.00
71004;BME280;59025;42.050;-8.660;2022-07-29T07:12:32;100987.88;;;21.13;100.00
71004;BME280;59025;42.050;-8.660;2022-07-29T07:15:00;100940.06;;;21.98;100.00
71004;BME280;59025;42.050;-8.660;2022-07-29T07:17:30;100920.47;;;22.64;100.00
71004;BME280;59025;42.050;-8.660;2022-07-29T07:19:57;100914.53;;;23.40;100.00
71004;BME280;59025;42.050;-8.660;2022-07-29T07:22:25;100903.50;;;24.00;100.00
71004;BME280;59025;42.050;-8.660;2022-07-29T07:24:52;100886.88;;;24.89;100.00
71004;BME280;59025;42.050;-8.660;2022-07-29T07:27:21;100875.44;;;25.49;100.00
71004;BME280;59025;42.050;-8.660;2022-07-29T07:29:49;100875.88;;;25.83;100.00
71004;BME280;59025;42.050;-8.660;2022-07-29T07:32:16;100876.91;;;26.27;100.00
71004;BME280;59025;42.050;-8.660;2022-07-29T07:34:46;100870.31;;;26.65;100.00
71004;BME280;59025;42.050;-8.660;2022-07-29T07:37:13;100878.47;;;26.77;100.00
71004;BME280;59025;42.050;-8.660;2022-07-29T07:39:41;100874.16;;;27.39;100.00
71004;BME280;59025;42.050;-8.660;2022-07-29T07:42:09;100868.88;;;28.00;100.00
71004;BME280;59025;42.050;-8.660;2022-07-29T07:44:38;100864.47;;;28.43;100.00
71004;BME280;59025;42.050;-8.660;2022-07-29T07:47:06;100864.16;;;28.44;100.00
71004;BME280;59025;42.050;-8.660;2022-07-29T07:49:33;100860.28;;;28.50;100.00
71004;BME280;59025;42.050;-8.660;2022-07-29T07:52:02;100860.94;;;28.64;100.00
71004;BME280;59025;42.050;-8.660;2022-07-29T07:54:30;100858.75;;;29.00;100.00
71004;BME280;59025;42.050;-8.660;2022-07-29T07:56:58;100857.47;;;29.23;100.00
71004;BME280;59025;42.050;-8.660;2022-07-29T07:59:26;100858.72;;;28.66;100.00
71004;BME280;59025;42.050;-8.660;2022-07-29T08:01:53;100863.41;;;28.86;100.00
71004;BME280;59025;42.050;-8.660;2022-07-29T08:04:21;100856.09;;;29.00;100.00
71004;BME280;59025;42.050;-8.660;2022-07-29T08:06:48;100854.88;;;29.52;100.00
71004;BME280;59025;42.050;-8.660;2022-07-29T08:09:18;100854.41;;;30.25;100.00
71004;BME280;59025;42.050;-8.660;2022-07-29T08:11:45;100858.72;;;30.38;100.00
71004;BME280;59025;42.050;-8.660;2022-07-29T08:14:13;100857.13;;;30.87;100.00
71004;BME280;59025;42.050;-8.660;2022-07-29T08:16:40;100859.94;;;31.02;100.00
71004;BME280;59025;42.050;-8.660;2022-07-29T08:19:08;100864.94;;;31.04;100.00
71004;BME280;59025;42.050;-8.660;2022-07-29T08:21:36;100862.31;;;30.83;100.00
71004;BME280;59025;42.050;-8.660;2022-07-29T08:24:04;100867.84;;;31.55;100.00
71004;BME280;59025;42.050;-8.660;2022-07-29T08:26:50;100871.09;;;31.73;100.00
71004;BME280;59025;42.050;-8.660;2022-07-29T08:29:17;100858.47;;;32.06;100.00
71004;BME280;59025;42.050;-8.660;2022-07-29T08:31:45;100875.22;;;31.82;100.00
71004;BME280;59025;42.050;-8.660;2022-07-29T08:34:13;100860.56;;;31.88;100.00
71004;BME280;59025;42.050;-8.660;2022-07-29T08:36:41;100859.56;;;32.05;100.00
71004;BME280;59025;42.050;-8.660;2022-07-29T08:39:09;100861.44;;;32.40;100.00
71004;BME280;59025;42.050;-8.660;2022-07-29T08:41:36;100857.56;;;32.38;100.00
71004;BME280;59025;42.050;-8.660;2022-07-29T08:44:05;100855.63;;;32.50;100.00
71004;BME280;59025;42.050;-8.660;2022-07-29T08:46:33;100857.94;;;32.91;100.00
71004;BME280;59025;42.050;-8.660;2022-07-29T08:49:04;100852.59;;;33.34;100.00
71004;BME280;59025;42.050;-8.660;2022-07-29T08:51:33;100845.09;;;34.02;98.04
71004;BME280;59025;42.050;-8.660;2022-07-29T08:54:02;100850.13;;;34.57;94.11
71004;BME280;59025;42.050;-8.660;2022-07-29T08:56:30;100858.00;;;34.69;93.56
71004;BME280;59025;42.050;-8.660;2022-07-29T08:59:03;100841.75;;;34.77;94.04
71004;BME280;59025;42.050;-8.660;2022-07-29T09:01:34;100847.06;;;34.58;94.43
71004;BME280;59025;42.050;-8.660;2022-07-29T09:04:05;100836.97;;;34.48;95.67
71004;BME280;59025;42.050;-8.660;2022-07-29T09:06:39;100825.56;;;34.32;96.87
71004;BME280;59025;42.050;-8.660;2022-07-29T09:09:09;100821.63;;;34.26;98.31
71004;BME280;59025;42.050;-8.660;2022-07-29T09:11:37;100818.00;;;33.84;100.00
71004;BME280;59025;42.050;-8.660;2022-07-29T09:14:04;100816.75;;;33.97;100.00
71004;BME280;59025;42.050;-8.660;2022-07-29T09:16:54;100810.19;;;34.10;100.00
71004;BME280;59025;42.050;-8.660;2022-07-29T09:19:24;100804.16;;;33.79;100.00
71004;BME280;59025;42.050;-8.660;2022-07-29T09:21:53;100804.22;;;33.82;100.00
71004;BME280;59025;42.050;-8.660;2022-07-29T09:24:38;100807.78;;;34.24;97.51
71004;BME280;59025;42.050;-8.660;2022-07-29T09:27:10;100801.13;;;34.34;98.07
71004;BME280;59025;42.050;-8.660;2022-07-29T09:29:39;100810.25;;;34.48;96.59
71004;BME280;59025;42.050;-8.660;2022-07-29T09:32:09;100804.13;;;34.70;99.76
71004;BME280;59025;42.050;-8.660;2022-07-29T09:34:37;100805.94;;;34.82;97.41
71004;BME280;59025;42.050;-8.660;2022-07-29T09:37:05;100795.97;;;34.41;98.83
71004;BME280;59025;42.050;-8.660;2022-07-29T09:39:33;100800.72;;;33.97;100.00
71004;BME280;59025;42.050;-8.660;2022-07-29T09:42:03;100800.31;;;33.95;100.00
71004;BME280;59025;42.050;-8.660;2022-07-29T09:44:41;100795.19;;;33.71;100.00
71004;BME280;59025;42.050;-8.660;2022-07-29T09:47:11;100788.34;;;33.89;100.00
71004;BME280;59025;42.050;-8.660;2022-07-29T09:49:51;100786.81;;;33.88;100.00
71004;BME280;59025;42.050;-8.660;2022-07-29T09:52:19;100787.03;;;33.99;100.00
71004;BME280;59025;42.050;-8.660;2022-07-29T09:54:47;100791.78;;;34.62;100.00
71004;BME280;59025;42.050;-8.660;2022-07-29T09:57:26;100792.19;;;34.64;100.00
71004;BME280;59025;42.050;-8.660;2022-07-29T09:59:58;100789.03;;;34.40;100.00
71004;BME280;59025;42.050;-8.660;2022-07-29T10:02:32;100798.81;;;34.51;100.00
71004;BME280;59025;42.050;-8.660;2022-07-29T10:05:00;100794.53;;;34.47;100.00
71004;BME280;59025;42.050;-8.660;2022-07-29T10:07:43;100793.06;;;34.49;100.00
71004;BME280;59025;42.050;-8.660;2022-07-29T10:10:18;100787.63;;;34.65;100.00
71004;BME280;59025;42.050;-8.660;2022-07-29T10:12:52;100796.13;;;35.12;98.21
71004;BME280;59025;42.050;-8.660;2022-07-29T10:15:21;100796.50;;;35.10;98.36
71004;BME280;59025;42.050;-8.660;2022-07-29T10:17:51;100795.47;;;35.41;97.42
71004;BME280;59025;42.050;-8.660;2022-07-29T10:20:19;100781.53;;;36.06;96.39
71004;BME280;59025;42.050;-8.660;2022-07-29T10:22:47;100785.94;;;36.54;91.89
71004;BME280;59025;42.050;-8.660;2022-07-29T10:25:15;100791.88;;;36.37;91.98
71004;BME280;59025;42.050;-8.660;2022-07-29T10:27:43;100786.81;;;36.03;91.97
71004;BME280;59025;42.050;-8.660;2022-07-29T10:30:12;100782.63;;;35.50;94.03
71004;BME280;59025;42.050;-8.660;2022-07-29T10:32:57;100782.69;;;34.67;97.81
71004;BME280;59025;42.050;-8.660;2022-07-29T10:35:48;100775.41;;;34.64;100.00
71004;BME280;59025;42.050;-8.660;2022-07-29T10:38:42;100775.38;;;34.83;100.00
71004;BME280;59025;42.050;-8.660;2022-07-29T10:41:19;100775.00;;;35.52;95.99
71004;BME280;59025;42.050;-8.660;2022-07-29T10:43:55;100774.25;;;35.77;93.82
71004;BME280;59025;42.050;-8.660;2022-07-29T10:46:24;100779.53;;;35.74;94.58
71004;BME280;59025;42.050;-8.660;2022-07-29T10:49:07;100766.28;;;35.10;99.48
71004;BME280;59025;42.050;-8.660;2022-07-29T10:51:54;100764.66;;;35.50;96.50
71004;BME280;59025;42.050;-8.660;2022-07-29T10:54:43;100762.97;;;35.16;96.84
71004;BME280;59025;42.050;-8.660;2022-07-29T10:57:21;100756.53;;;34.98;100.00
71004;BME280;59025;42.050;-8.660;2022-07-29T11:00:28;100749.34;;;35.02;100.00
71004;BME280;59025;42.050;-8.660;2022-07-29T11:02:56;100751.97;;;34.19;100.00
71004;BME280;59025;42.050;-8.660;2022-07-29T11:05:24;100749.09;;;33.90;100.00
71004;BME280;59025;42.050;-8.660;2022-07-29T11:08:17;100753.16;;;33.68;100.00
71004;BME280;59025;42.050;-8.660;2022-07-29T11:10:46;100746.91;;;33.95;100.00
71004;BME280;59025;42.050;-8.660;2022-07-29T11:13:50;100743.84;;;34.31;100.00
71004;BME280;59025;42.050;-8.660;2022-07-29T11:16:20;100743.16;;;34.98;100.00
71004;BME280;59025;42.050;-8.660;2022-07-29T11:19:21;100748.72;;;34.67;100.00
71004;BME280;59025;42.050;-8.660;2022-07-29T11:21:49;100739.72;;;33.65;100.00
71004;BME280;59025;42.050;-8.660;2022-07-29T11:24:21;100741.84;;;34.47;100.00
71004;BME280;59025;42.050;-8.660;2022-07-29T11:27:14;100741.84;;;33.90;100.00
71004;BME280;59025;42.050;-8.660;2022-07-29T11:29:53;100739.78;;;34.79;100.00
71004;BME280;59025;42.050;-8.660;2022-07-29T11:32:25;100743.13;;;35.43;100.00
71004;BME280;59025;42.050;-8.660;2022-07-29T11:35:21;100737.31;;;35.64;100.00
71004;BME280;59025;42.050;-8.660;2022-07-29T11:38:24;100734.06;;;35.77;100.00
71004;BME280;59025;42.050;-8.660;2022-07-29T11:41:20;100738.66;;;35.77;97.84
71004;BME280;59025;42.050;-8.660;2022-07-29T11:43:51;100737.59;;;35.85;97.33
71004;BME280;59025;42.050;-8.660;2022-07-29T11:46:45;100733.06;;;35.33;100.00
71004;BME280;59025;42.050;-8.660;2022-07-29T11:49:21;100732.06;;;35.45;100.00
71004;BME280;59025;42.050;-8.660;2022-07-29T11:51:52;100736.50;;;35.34;98.82
71004;BME280;59025;42.050;-8.660;2022-07-29T11:54:24;100734.06;;;34.39;100.00
71004;BME280;59025;42.050;-8.660;2022-07-29T11:56:57;100726.03;;;33.66;100.00
71004;BME280;59025;42.050;-8.660;2022-07-29T11:59:26;100725.75;;;33.21;100.00
71004;BME280;59025;42.050;-8.660;2022-07-29T12:02:01;100723.50;;;33.08;100.00
71004;BME280;59025;42.050;-8.660;2022-07-29T12:04:32;100717.22;;;33.16;100.00
71004;BME280;59025;42.050;-8.660;2022-07-29T12:07:01;100734.44;;;33.18;100.00
71004;BME280;59025;42.050;-8.660;2022-07-29T12:09:31;100726.03;;;32.73;100.00
71004;BME280;59025;42.050;-8.660;2022-07-29T12:12:04;100726.19;;;32.92;100.00
71004;BME280;59025;42.050;-8.660;2022-07-29T12:14:36;100723.75;;;33.49;100.00
71004;BME280;59025;42.050;-8.660;2022-07-29T12:17:25;100735.91;;;33.00;100.00
71004;BME280;59025;42.050;-8.660;2022-07-29T12:19:55;100735.31;;;32.91;100.00
71004;BME280;59025;42.050;-8.660;2022-07-29T12:22:26;100737.19;;;33.06;100.00
71004;BME280;59025;42.050;-8.660;2022-07-29T12:24:56;100729.78;;;33.46;100.00
71004;BME280;59025;42.050;-8.660;2022-07-29T12:27:29;100739.44;;;32.89;100.00
71004;BME280;59025;42.050;-8.660;2022-07-29T12:30:00;100736.50;;;32.11;100.00
71004;BME280;59025;42.050;-8.660;2022-07-29T12:32:33;100740.16;;;31.79;100.00
71004;BME280;59025;42.050;-8.660;2022-07-29T12:35:09;100750.91;;;31.71;100.00
71004;BME280;59025;42.050;-8.660;2022-07-29T12:37:40;100753.63;;;31.14;100.00
71004;BME280;59025;42.050;-8.660;2022-07-29T12:40:10;100744.59;;;31.39;100.00
71004;BME280;59025;42.050;-8.660;2022-07-29T12:42:38;100757.16;;;31.06;100.00
71004;BME280;59025;42.050;-8.660;2022-07-29T12:45:07;100751.47;;;30.96;100.00
71004;BME280;59025;42.050;-8.660;2022-07-29T12:47:52;100751.16;;;30.97;100.00
71004;BME280;59025;42.050;-8.660;2022-07-29T12:50:21;100749.56;;;31.41;100.00